createdAt,value
2018-10-01T00:00:39.912Z,990.62
2018-10-01T00:01:39.902Z,990.64
2018-10-01T00:02:39.898Z,990.61
2018-10-01T00:03:39.887Z,990.61
2018-10-01T00:04:39.876Z,990.64
2018-10-01T00:05:39.864Z,990.56
2018-10-01T00:06:39.864Z,990.58
2018-10-01T00:07:39.851Z,990.57
2018-10-01T00:08:39.847Z,990.56
2018-10-01T00:09:39.839Z,990.56
2018-10-01T00:10:39.827Z,990.56
2018-10-01T00:11:39.818Z,990.60
2018-10-01T00:12:39.816Z,990.59
2018-10-01T00:13:39.802Z,990.59
2018-10-01T00:14:39.784Z,990.60
2018-10-01T00:15:39.787Z,990.59
2018-10-01T00:16:39.772Z,990.64
2018-10-01T00:17:39.764Z,990.63
2018-10-01T00:18:39.767Z,990.65
2018-10-01T00:19:39.746Z,990.70
2018-10-01T00:20:39.735Z,990.69
2018-10-01T00:21:39.732Z,990.70
2018-10-01T00:22:39.721Z,990.72
2018-10-01T00:23:39.717Z,990.74
2018-10-01T00:24:39.704Z,990.73
2018-10-01T00:25:39.695Z,990.74
2018-10-01T00:26:39.686Z,990.73
2018-10-01T00:27:39.675Z,990.71
2018-10-01T00:28:39.672Z,990.70
2018-10-01T00:29:39.668Z,990.72
2018-10-01T00:30:39.651Z,990.74
2018-10-01T00:31:39.643Z,990.73
2018-10-01T00:32:39.636Z,990.77
2018-10-01T00:33:39.622Z,990.78
2018-10-01T00:34:39.621Z,990.74
2018-10-01T00:35:39.606Z,990.70
2018-10-01T00:36:39.600Z,990.68
2018-10-01T00:37:39.587Z,990.64
2018-10-01T00:38:39.579Z,990.67
2018-10-01T00:39:39.571Z,990.71
2018-10-01T00:40:39.563Z,990.69
2018-10-01T00:41:39.557Z,990.67
2018-10-01T00:42:39.569Z,990.70
2018-10-01T00:43:39.537Z,990.64
2018-10-01T00:44:39.529Z,990.64
2018-10-01T00:45:39.520Z,990.62
2018-10-01T00:46:39.516Z,990.62
2018-10-01T00:47:39.502Z,990.61
2018-10-01T00:48:39.494Z,990.60
2018-10-01T00:49:39.484Z,990.59
2018-10-01T00:50:39.474Z,990.62
2018-10-01T00:51:39.469Z,990.59
2018-10-01T00:52:39.460Z,990.60
2018-10-01T00:53:39.443Z,990.63
2018-10-01T00:54:39.447Z,990.64
2018-10-01T00:55:39.425Z,990.64
2018-10-01T00:56:39.424Z,990.60
2018-10-01T00:57:39.423Z,990.57
2018-10-01T00:58:39.405Z,990.56
2018-10-01T00:59:39.398Z,990.55
2018-10-01T01:00:39.392Z,990.56
2018-10-01T01:01:39.383Z,990.58
2018-10-01T01:02:39.372Z,990.52
2018-10-01T01:03:39.364Z,990.56
2018-10-01T01:04:39.355Z,990.58
2018-10-01T01:05:39.346Z,990.58
2018-10-01T01:06:39.332Z,990.61
2018-10-01T01:07:39.325Z,990.62
2018-10-01T01:08:39.323Z,990.60
2018-10-01T01:09:39.311Z,990.60
2018-10-01T01:10:39.298Z,990.57
2018-10-01T01:11:39.295Z,990.61
2018-10-01T01:12:39.280Z,990.61
2018-10-01T01:13:39.275Z,990.61
2018-10-01T01:14:39.266Z,990.63
2018-10-01T01:15:39.257Z,990.59
2018-10-01T01:16:39.250Z,990.61
2018-10-01T01:17:39.238Z,990.59
2018-10-01T01:18:39.233Z,990.57
2018-10-01T01:19:39.225Z,990.61
2018-10-01T01:20:39.215Z,990.59
2018-10-01T01:21:39.205Z,990.57
2018-10-01T01:22:39.197Z,990.56
2018-10-01T01:23:39.188Z,990.57
2018-10-01T01:24:39.179Z,990.57
2018-10-01T01:25:39.169Z,990.58
2018-10-01T01:26:39.160Z,990.57
2018-10-01T01:27:39.154Z,990.57
2018-10-01T01:28:39.141Z,990.57
2018-10-01T01:29:39.133Z,990.53
2018-10-01T01:30:39.133Z,990.57
2018-10-01T01:31:39.123Z,990.60
2018-10-01T01:32:39.109Z,990.60
2018-10-01T01:33:39.099Z,990.55
2018-10-01T01:34:39.092Z,990.54
2018-10-01T01:35:39.083Z,990.53
2018-10-01T01:36:39.094Z,990.53
2018-10-01T01:37:39.065Z,990.55
2018-10-01T01:38:39.057Z,990.55
2018-10-01T01:39:39.045Z,990.56
2018-10-01T01:40:39.038Z,990.55
2018-10-01T01:41:39.031Z,990.59
2018-10-01T01:42:39.021Z,990.63
2018-10-01T01:43:39.009Z,990.64
2018-10-01T01:44:39.005Z,990.61
2018-10-01T01:45:38.992Z,990.60
2018-10-01T01:46:38.991Z,990.60
2018-10-01T01:47:38.983Z,990.58
2018-10-01T01:48:38.968Z,990.60
2018-10-01T01:49:38.964Z,990.57
2018-10-01T01:50:38.956Z,990.54
2018-10-01T01:51:38.942Z,990.52
2018-10-01T01:52:38.933Z,990.51
2018-10-01T01:53:38.924Z,990.52
2018-10-01T01:54:38.916Z,990.49
2018-10-01T01:55:38.908Z,990.56
2018-10-01T01:56:38.899Z,990.57
2018-10-01T01:57:38.892Z,990.57
2018-10-01T01:58:38.879Z,990.58
2018-10-01T01:59:38.873Z,990.60
2018-10-01T02:00:38.864Z,990.58
2018-10-01T02:01:38.856Z,990.60
2018-10-01T02:02:38.849Z,990.51
2018-10-01T02:03:38.840Z,990.56
2018-10-01T02:04:38.829Z,990.57
2018-10-01T02:05:38.821Z,990.50
2018-10-01T02:06:38.814Z,990.53
2018-10-01T02:07:38.805Z,990.53
2018-10-01T02:08:38.793Z,990.47
2018-10-01T02:09:38.786Z,990.50
2018-10-01T02:10:38.776Z,990.49
2018-10-01T02:11:38.765Z,990.51
2018-10-01T02:12:38.752Z,990.47
2018-10-01T02:13:38.750Z,990.46
2018-10-01T02:14:38.744Z,990.41
2018-10-01T02:15:38.735Z,990.44
2018-10-01T02:16:38.724Z,990.43
2018-10-01T02:17:38.715Z,990.44
2018-10-01T02:18:38.706Z,990.47
2018-10-01T02:19:38.696Z,990.43
2018-10-01T02:20:38.688Z,990.42
2018-10-01T02:21:38.679Z,990.47
2018-10-01T02:22:38.674Z,990.44
2018-10-01T02:23:38.653Z,990.40
2018-10-01T02:24:38.649Z,990.42
2018-10-01T02:25:38.645Z,990.43
2018-10-01T02:26:38.635Z,990.42
2018-10-01T02:27:38.626Z,990.43
2018-10-01T02:28:38.617Z,990.43
2018-10-01T02:29:38.606Z,990.40
2018-10-01T02:30:38.598Z,990.42
2018-10-01T02:31:38.590Z,990.44
2018-10-01T02:32:38.581Z,990.40
2018-10-01T02:33:38.573Z,990.39
2018-10-01T02:34:38.564Z,990.44
2018-10-01T02:35:38.560Z,990.39
2018-10-01T02:36:38.544Z,990.42
2018-10-01T02:37:38.541Z,990.40
2018-10-01T02:38:38.529Z,990.38
2018-10-01T02:39:38.519Z,990.36
2018-10-01T02:40:38.512Z,990.34
2018-10-01T02:41:38.503Z,990.36
2018-10-01T02:42:38.497Z,990.32
2018-10-01T02:43:38.485Z,990.33
2018-10-01T02:44:38.479Z,990.36
2018-10-01T02:45:38.470Z,990.36
2018-10-01T02:46:38.460Z,990.31
2018-10-01T02:47:38.464Z,990.27
2018-10-01T02:48:38.443Z,990.26
2018-10-01T02:49:38.431Z,990.26
2018-10-01T02:50:38.425Z,990.23
2018-10-01T02:51:38.417Z,990.22
2018-10-01T02:52:38.410Z,990.22
2018-10-01T02:53:38.397Z,990.23
2018-10-01T02:54:38.393Z,990.23
2018-10-01T02:55:38.382Z,990.25
2018-10-01T02:56:38.367Z,990.20
2018-10-01T02:57:38.363Z,990.18
2018-10-01T02:58:38.353Z,990.16
2018-10-01T02:59:38.347Z,990.20
2018-10-01T03:00:38.336Z,990.18
2018-10-01T03:01:38.325Z,990.12
2018-10-01T03:02:38.316Z,990.18
2018-10-01T03:03:38.310Z,990.18
2018-10-01T03:04:38.301Z,990.17
2018-10-01T03:05:38.297Z,990.18
2018-10-01T03:06:38.285Z,990.18
2018-10-01T03:07:38.283Z,990.16
2018-10-01T03:08:38.267Z,990.15
2018-10-01T03:09:38.252Z,990.14
2018-10-01T03:10:38.246Z,990.12
2018-10-01T03:11:38.237Z,990.13
2018-10-01T03:12:38.229Z,990.15
2018-10-01T03:13:38.224Z,990.18
2018-10-01T03:14:38.210Z,990.20
2018-10-01T03:15:38.206Z,990.19
2018-10-01T03:16:38.197Z,990.25
2018-10-01T03:17:38.189Z,990.20
2018-10-01T03:18:38.181Z,990.21
2018-10-01T03:19:38.172Z,990.26
2018-10-01T03:20:38.154Z,990.28
2018-10-01T03:21:38.155Z,990.29
2018-10-01T03:22:38.138Z,990.29
2018-10-01T03:23:38.131Z,990.22
2018-10-01T03:24:38.123Z,990.22
2018-10-01T03:25:38.113Z,990.20
2018-10-01T03:26:38.109Z,990.29
2018-10-01T03:27:38.107Z,990.30
2018-10-01T03:28:38.090Z,990.30
2018-10-01T03:29:38.078Z,990.29
2018-10-01T03:30:38.071Z,990.28
2018-10-01T03:31:38.059Z,990.30
2018-10-01T03:32:38.052Z,990.32
2018-10-01T03:33:38.045Z,990.33
2018-10-01T03:34:38.033Z,990.32
2018-10-01T03:35:38.026Z,990.34
2018-10-01T03:36:38.026Z,990.33
2018-10-01T03:37:38.010Z,990.33
2018-10-01T03:38:37.999Z,990.34
2018-10-01T03:39:37.990Z,990.35
2018-10-01T03:40:37.981Z,990.32
2018-10-01T03:41:37.973Z,990.35
2018-10-01T03:42:37.963Z,990.35
2018-10-01T03:43:37.953Z,990.36
2018-10-01T03:44:37.947Z,990.37
2018-10-01T03:45:37.935Z,990.41
2018-10-01T03:46:37.929Z,990.43
2018-10-01T03:47:37.924Z,990.44
2018-10-01T03:48:37.911Z,990.45
2018-10-01T03:49:37.903Z,990.43
2018-10-01T03:50:37.900Z,990.43
2018-10-01T03:51:37.884Z,990.44
2018-10-01T03:52:37.911Z,990.45
2018-10-01T03:53:37.902Z,990.45
2018-10-01T03:54:37.863Z,990.45
2018-10-01T03:55:37.887Z,990.48
2018-10-01T03:56:37.871Z,990.43
2018-10-01T03:57:37.832Z,990.44
2018-10-01T03:58:37.832Z,990.45
2018-10-01T03:59:37.817Z,990.43
2018-10-01T04:00:37.802Z,990.50
2018-10-01T04:01:37.792Z,990.47
2018-10-01T04:02:37.814Z,990.49
2018-10-01T04:03:37.777Z,990.53
2018-10-01T04:04:37.767Z,990.58
2018-10-01T04:05:37.757Z,990.58
2018-10-01T04:06:37.743Z,990.61
2018-10-01T04:07:37.736Z,990.59
2018-10-01T04:08:37.803Z,990.57
2018-10-01T04:09:37.720Z,990.60
2018-10-01T04:10:37.712Z,990.62
2018-10-01T04:11:37.703Z,990.62
2018-10-01T04:12:37.693Z,990.62
2018-10-01T04:13:37.682Z,990.60
2018-10-01T04:14:37.676Z,990.65
2018-10-01T04:15:37.665Z,990.65
2018-10-01T04:16:37.658Z,990.62
2018-10-01T04:17:37.647Z,990.63
2018-10-01T04:18:37.635Z,990.61
2018-10-01T04:19:37.633Z,990.66
2018-10-01T04:20:37.619Z,990.71
2018-10-01T04:21:37.610Z,990.69
2018-10-01T04:22:37.671Z,990.77
2018-10-01T04:23:37.593Z,990.74
2018-10-01T04:24:37.584Z,990.74
2018-10-01T04:25:37.574Z,990.77
2018-10-01T04:26:37.566Z,990.82
2018-10-01T04:27:37.559Z,990.82
2018-10-01T04:28:37.549Z,990.81
2018-10-01T04:29:37.538Z,990.85
2018-10-01T04:30:37.537Z,990.88
2018-10-01T04:31:37.521Z,990.89
2018-10-01T04:32:37.512Z,990.88
2018-10-01T04:33:37.500Z,990.93
2018-10-01T04:34:37.491Z,990.91
2018-10-01T04:35:37.486Z,990.95
2018-10-01T04:36:37.476Z,990.99
2018-10-01T04:37:37.470Z,990.96
2018-10-01T04:38:37.454Z,990.94
2018-10-01T04:39:37.448Z,990.99
2018-10-01T04:40:37.465Z,990.94
2018-10-01T04:41:37.430Z,990.93
2018-10-01T04:42:37.420Z,990.99
2018-10-01T04:43:37.413Z,990.95
2018-10-01T04:44:37.408Z,991.01
2018-10-01T04:45:37.392Z,990.97
2018-10-01T04:46:37.398Z,990.99
2018-10-01T04:47:37.377Z,991.04
2018-10-01T04:48:37.368Z,991.03
2018-10-01T04:49:37.354Z,991.06
2018-10-01T04:50:37.345Z,991.10
2018-10-01T04:51:37.351Z,991.12
2018-10-01T04:52:37.332Z,991.12
2018-10-01T04:53:37.320Z,991.06
2018-10-01T04:54:37.312Z,991.09
2018-10-01T04:55:37.304Z,991.07
2018-10-01T04:56:37.299Z,991.08
2018-10-01T04:57:37.291Z,991.08
2018-10-01T04:58:37.417Z,991.13
2018-10-01T04:59:37.269Z,991.13
2018-10-01T05:00:37.262Z,991.15
2018-10-01T05:01:37.249Z,991.12
2018-10-01T05:02:37.245Z,991.12
2018-10-01T05:03:37.233Z,991.12
2018-10-01T05:04:37.229Z,991.10
2018-10-01T05:05:37.215Z,991.10
2018-10-01T05:06:37.206Z,991.09
2018-10-01T05:07:37.196Z,991.07
2018-10-01T05:08:37.192Z,991.13
2018-10-01T05:09:37.185Z,991.06
2018-10-01T05:10:37.170Z,991.12
2018-10-01T05:11:37.163Z,991.11
2018-10-01T05:12:37.152Z,991.14
2018-10-01T05:13:37.146Z,991.17
2018-10-01T05:14:37.160Z,991.21
2018-10-01T05:15:37.126Z,991.21
2018-10-01T05:16:37.117Z,991.22
2018-10-01T05:17:37.111Z,991.20
2018-10-01T05:18:37.102Z,991.20
2018-10-01T05:19:37.095Z,991.16
2018-10-01T05:20:37.087Z,991.24
2018-10-01T05:21:37.075Z,991.26
2018-10-01T05:22:37.064Z,991.28
2018-10-01T05:23:37.065Z,991.27
2018-10-01T05:24:37.045Z,991.29
2018-10-01T05:25:37.038Z,991.32
2018-10-01T05:26:37.029Z,991.25
2018-10-01T05:27:37.022Z,991.26
2018-10-01T05:28:37.012Z,991.26
2018-10-01T05:29:37.007Z,991.27
2018-10-01T05:30:36.998Z,991.29
2018-10-01T05:31:36.989Z,991.24
2018-10-01T05:32:36.976Z,991.22
2018-10-01T05:33:36.966Z,991.19
2018-10-01T05:34:36.960Z,991.13
2018-10-01T05:35:36.951Z,991.12
2018-10-01T05:36:36.942Z,991.16
2018-10-01T05:37:36.973Z,991.18
2018-10-01T05:38:36.923Z,991.22
2018-10-01T05:39:36.913Z,991.23
2018-10-01T05:40:36.906Z,991.24
2018-10-01T05:41:36.898Z,991.35
2018-10-01T05:42:36.893Z,991.33
2018-10-01T05:43:36.881Z,991.33
2018-10-01T05:44:36.872Z,991.35
2018-10-01T05:45:36.860Z,991.36
2018-10-01T05:46:36.861Z,991.40
2018-10-01T05:47:36.847Z,991.40
2018-10-01T05:48:36.835Z,991.40
2018-10-01T05:49:36.828Z,991.44
2018-10-01T05:50:36.819Z,991.43
2018-10-01T05:51:36.813Z,991.49
2018-10-01T05:52:36.802Z,991.52
2018-10-01T05:53:36.793Z,991.57
2018-10-01T05:54:36.783Z,991.64
2018-10-01T05:55:36.779Z,991.65
2018-10-01T05:56:36.774Z,991.63
2018-10-01T05:57:36.804Z,991.65
2018-10-01T05:58:36.747Z,991.73
2018-10-01T05:59:36.738Z,991.75
2018-10-01T06:00:36.741Z,991.76
2018-10-01T06:01:36.722Z,991.77
2018-10-01T06:02:36.712Z,991.76
2018-10-01T06:03:36.706Z,991.77
2018-10-01T06:04:36.739Z,991.82
2018-10-01T06:05:36.686Z,991.85
2018-10-01T06:06:36.679Z,991.90
2018-10-01T06:07:36.668Z,991.87
2018-10-01T06:08:36.667Z,991.88
2018-10-01T06:09:36.658Z,991.88
2018-10-01T06:10:36.641Z,991.92
2018-10-01T06:11:36.632Z,991.93
2018-10-01T06:12:36.625Z,991.92
2018-10-01T06:13:36.615Z,991.93
2018-10-01T06:14:36.605Z,991.90
2018-10-01T06:15:36.597Z,991.88
2018-10-01T06:16:36.589Z,991.88
2018-10-01T06:17:36.582Z,991.88
2018-10-01T06:18:36.566Z,991.86
2018-10-01T06:19:36.560Z,991.83
2018-10-01T06:20:36.556Z,991.83
2018-10-01T06:21:36.546Z,991.86
2018-10-01T06:22:36.536Z,991.85
2018-10-01T06:23:36.528Z,991.88
2018-10-01T06:24:36.519Z,991.88
2018-10-01T06:25:36.509Z,991.93
2018-10-01T06:26:36.501Z,991.90
2018-10-01T06:27:36.492Z,991.92
2018-10-01T06:28:36.484Z,991.96
2018-10-01T06:29:36.473Z,991.95
2018-10-01T06:30:36.464Z,991.98
2018-10-01T06:31:36.456Z,992.01
2018-10-01T06:32:36.450Z,991.99
2018-10-01T06:33:36.441Z,992.01
2018-10-01T06:34:36.430Z,992.03
2018-10-01T06:35:36.422Z,992.00
2018-10-01T06:36:36.415Z,992.01
2018-10-01T06:37:36.402Z,992.00
2018-10-01T06:38:36.395Z,992.03
2018-10-01T06:39:36.386Z,992.01
2018-10-01T06:40:36.379Z,992.05
2018-10-01T06:41:36.390Z,992.08
2018-10-01T06:42:36.369Z,992.09
2018-10-01T06:43:36.352Z,992.13
2018-10-01T06:44:36.344Z,992.16
2018-10-01T06:45:36.335Z,992.18
2018-10-01T06:46:36.325Z,992.13
2018-10-01T06:47:36.316Z,992.16
2018-10-01T06:48:36.307Z,992.15
2018-10-01T06:49:36.299Z,992.21
2018-10-01T06:50:36.293Z,992.17
2018-10-01T06:51:36.279Z,992.23
2018-10-01T06:52:36.271Z,992.22
2018-10-01T06:53:36.271Z,992.23
2018-10-01T06:54:36.256Z,992.22
2018-10-01T06:55:36.246Z,992.26
2018-10-01T06:56:36.237Z,992.28
2018-10-01T06:57:36.227Z,992.32
2018-10-01T06:58:36.220Z,992.32
2018-10-01T06:59:36.211Z,992.32
2018-10-01T07:00:36.203Z,992.30
2018-10-01T07:01:36.193Z,992.35
2018-10-01T07:02:36.185Z,992.35
2018-10-01T07:03:36.173Z,992.37
2018-10-01T07:04:36.169Z,992.37
2018-10-01T07:05:36.307Z,992.41
2018-10-01T07:06:36.151Z,992.44
2018-10-01T07:07:36.140Z,992.45
2018-10-01T07:08:36.130Z,992.48
2018-10-01T07:09:36.136Z,992.51
2018-10-01T07:10:36.112Z,992.50
2018-10-01T07:11:36.130Z,992.54
2018-10-01T07:12:36.098Z,992.55
2018-10-01T07:13:36.100Z,992.55
2018-10-01T07:14:36.080Z,992.58
2018-10-01T07:15:36.072Z,992.63
2018-10-01T07:16:36.060Z,992.58
2018-10-01T07:17:36.051Z,992.56
2018-10-01T07:18:36.044Z,992.59
2018-10-01T07:19:36.034Z,992.62
2018-10-01T07:20:36.026Z,992.67
2018-10-01T07:21:36.022Z,992.61
2018-10-01T07:22:36.143Z,992.64
2018-10-01T07:23:36.001Z,992.64
2018-10-01T07:24:35.986Z,992.70
2018-10-01T07:25:35.982Z,992.67
2018-10-01T07:26:35.975Z,992.71
2018-10-01T07:27:35.963Z,992.71
2018-10-01T07:28:35.954Z,992.69
2018-10-01T07:29:35.948Z,992.68
2018-10-01T07:30:35.937Z,992.73
2018-10-01T07:31:35.928Z,992.70
2018-10-01T07:32:35.920Z,992.72
2018-10-01T07:33:35.912Z,992.78
2018-10-01T07:34:35.906Z,992.77
2018-10-01T07:35:35.893Z,992.80
2018-10-01T07:36:35.883Z,992.76
2018-10-01T07:37:35.877Z,992.79
2018-10-01T07:38:35.867Z,992.78
2018-10-01T07:39:35.861Z,992.79
2018-10-01T07:40:35.853Z,992.83
2018-10-01T07:41:35.841Z,992.80
2018-10-01T07:42:35.836Z,992.83
2018-10-01T07:43:35.828Z,992.82
2018-10-01T07:44:35.816Z,992.81
2018-10-01T07:45:35.805Z,992.88
2018-10-01T07:46:35.796Z,992.88
2018-10-01T07:47:35.798Z,992.86
2018-10-01T07:48:35.781Z,992.89
2018-10-01T07:49:35.787Z,992.87
2018-10-01T07:50:35.793Z,992.88
2018-10-01T07:51:35.754Z,992.90
2018-10-01T07:52:35.745Z,992.89
2018-10-01T07:53:35.834Z,992.93
2018-10-01T07:54:35.732Z,992.93
2018-10-01T07:55:35.724Z,992.99
2018-10-01T07:56:35.711Z,992.97
2018-10-01T07:57:35.774Z,993.00
2018-10-01T07:58:35.693Z,993.00
2018-10-01T07:59:35.726Z,992.99
2018-10-01T08:00:35.671Z,993.05
2018-10-01T08:01:35.665Z,993.07
2018-10-01T08:02:35.677Z,993.05
2018-10-01T08:03:35.649Z,993.04
2018-10-01T08:04:35.641Z,993.02
2018-10-01T08:05:35.657Z,993.06
2018-10-01T08:06:35.621Z,993.04
2018-10-01T08:07:35.614Z,993.06
2018-10-01T08:08:35.660Z,993.09
2018-10-01T08:09:35.599Z,993.08
2018-10-01T08:10:35.587Z,993.11
2018-10-01T08:11:35.584Z,993.08
2018-10-01T08:12:35.571Z,993.10
2018-10-01T08:13:35.559Z,993.14
2018-10-01T08:14:35.556Z,993.11
2018-10-01T08:15:35.542Z,993.13
2018-10-01T08:16:35.532Z,993.15
2018-10-01T08:17:35.525Z,993.13
2018-10-01T08:18:35.522Z,993.13
2018-10-01T08:19:35.509Z,993.16
2018-10-01T08:20:35.556Z,993.15
2018-10-01T08:21:35.490Z,993.16
2018-10-01T08:22:35.493Z,993.18
2018-10-01T08:23:35.583Z,993.19
2018-10-01T08:24:35.468Z,993.19
2018-10-01T08:25:35.459Z,993.22
2018-10-01T08:26:35.463Z,993.21
2018-10-01T08:27:35.442Z,993.23
2018-10-01T08:28:35.433Z,993.28
2018-10-01T08:29:35.483Z,993.30
2018-10-01T08:30:35.408Z,993.32
2018-10-01T08:31:35.398Z,993.32
2018-10-01T08:32:35.459Z,993.33
2018-10-01T08:33:35.387Z,993.39
2018-10-01T08:34:35.376Z,993.35
2018-10-01T08:35:35.495Z,993.36
2018-10-01T08:36:35.360Z,993.41
2018-10-01T08:37:35.350Z,993.42
2018-10-01T08:38:35.368Z,993.40
2018-10-01T08:39:35.332Z,993.41
2018-10-01T08:40:35.329Z,993.42
2018-10-01T08:41:35.443Z,993.37
2018-10-01T08:42:35.307Z,993.35
2018-10-01T08:43:35.301Z,993.39
2018-10-01T08:44:35.336Z,993.38
2018-10-01T08:45:35.281Z,993.38
2018-10-01T08:46:35.273Z,993.43
2018-10-01T08:47:35.302Z,993.43
2018-10-01T08:48:35.255Z,993.44
2018-10-01T08:49:35.244Z,993.45
2018-10-01T08:50:35.328Z,993.44
2018-10-01T08:51:35.275Z,993.45
2018-10-01T08:52:35.219Z,993.44
2018-10-01T08:53:35.247Z,993.51
2018-10-01T08:54:35.201Z,993.53
2018-10-01T08:55:35.194Z,993.49
2018-10-01T08:56:35.246Z,993.57
2018-10-01T08:57:35.177Z,993.53
2018-10-01T08:58:35.167Z,993.59
2018-10-01T08:59:35.213Z,993.55
2018-10-01T09:00:35.151Z,993.59
2018-10-01T09:01:35.144Z,993.60
2018-10-01T09:02:35.143Z,993.63
2018-10-01T09:03:35.125Z,993.62
2018-10-01T09:04:35.115Z,993.64
2018-10-01T09:05:35.177Z,993.67
2018-10-01T09:06:35.129Z,993.72
2018-10-01T09:07:35.088Z,993.69
2018-10-01T09:08:35.186Z,993.70
2018-10-01T09:09:35.070Z,993.71
2018-10-01T09:10:35.064Z,993.73
2018-10-01T09:11:35.132Z,993.74
2018-10-01T09:12:35.047Z,993.75
2018-10-01T09:13:35.036Z,993.79
2018-10-01T09:14:35.097Z,993.81
2018-10-01T09:15:35.019Z,993.80
2018-10-01T09:16:35.003Z,993.82
2018-10-01T09:17:35.049Z,993.79
2018-10-01T09:18:34.997Z,993.83
2018-10-01T09:19:34.987Z,993.81
2018-10-01T09:20:34.992Z,993.87
2018-10-01T09:21:35.012Z,993.83
2018-10-01T09:22:34.959Z,993.86
2018-10-01T09:23:35.056Z,993.86
2018-10-01T09:24:34.938Z,993.88
2018-10-01T09:25:34.930Z,993.89
2018-10-01T09:26:35.004Z,993.94
2018-10-01T09:27:34.913Z,993.92
2018-10-01T09:28:34.907Z,993.99
2018-10-01T09:29:34.988Z,993.95
2018-10-01T09:30:34.885Z,993.97
2018-10-01T09:31:34.878Z,994.00
2018-10-01T09:32:34.988Z,993.99
2018-10-01T09:33:34.862Z,994.02
2018-10-01T09:34:34.853Z,994.04
2018-10-01T09:35:34.922Z,994.01
2018-10-01T09:36:34.836Z,994.04
2018-10-01T09:37:34.821Z,993.99
2018-10-01T09:38:34.847Z,993.99
2018-10-01T09:39:34.858Z,993.98
2018-10-01T09:40:34.826Z,994.01
2018-10-01T09:41:34.793Z,993.96
2018-10-01T09:42:34.782Z,993.95
2018-10-01T09:43:34.774Z,993.92
2018-10-01T09:44:34.839Z,993.96
2018-10-01T09:45:34.756Z,993.91
2018-10-01T09:46:34.777Z,993.89
2018-10-01T09:47:34.743Z,993.91
2018-10-01T09:48:34.730Z,993.90
2018-10-01T09:49:34.712Z,993.95
2018-10-01T09:50:34.767Z,993.93
2018-10-01T09:51:34.708Z,993.94
2018-10-01T09:52:34.751Z,993.94
2018-10-01T09:53:34.698Z,993.95
2018-10-01T09:54:34.688Z,993.93
2018-10-01T09:55:34.666Z,993.94
2018-10-01T09:56:34.741Z,993.96
2018-10-01T09:57:34.659Z,993.97
2018-10-01T09:58:34.728Z,993.91
2018-10-01T09:59:34.628Z,993.95
2018-10-01T10:00:34.626Z,993.95
2018-10-01T10:01:34.611Z,993.94
2018-10-01T10:02:34.686Z,993.93
2018-10-01T10:03:34.600Z,993.99
2018-10-01T10:04:34.691Z,993.96
2018-10-01T10:05:34.582Z,993.94
2018-10-01T10:06:34.572Z,993.96
2018-10-01T10:07:34.565Z,993.93
2018-10-01T10:08:34.627Z,993.95
2018-10-01T10:09:34.548Z,993.94
2018-10-01T10:10:34.597Z,993.92
2018-10-01T10:11:34.604Z,993.97
2018-10-01T10:12:34.518Z,993.97
2018-10-01T10:13:34.514Z,994.01
2018-10-01T10:14:34.553Z,994.02
2018-10-01T10:15:34.495Z,993.99
2018-10-01T10:16:34.565Z,994.02
2018-10-01T10:17:34.477Z,994.02
2018-10-01T10:18:34.467Z,994.04
2018-10-01T10:19:34.460Z,994.06
2018-10-01T10:20:34.492Z,994.08
2018-10-01T10:21:34.444Z,994.09
2018-10-01T10:22:34.539Z,994.07
2018-10-01T10:23:34.420Z,994.03
2018-10-01T10:24:34.415Z,994.06
2018-10-01T10:25:34.411Z,994.02
2018-10-01T10:26:34.400Z,994.01
2018-10-01T10:27:34.390Z,994.07
2018-10-01T10:28:34.458Z,994.02
2018-10-01T10:29:34.372Z,994.04
2018-10-01T10:30:34.367Z,993.98
2018-10-01T10:31:34.358Z,994.02
2018-10-01T10:32:34.351Z,994.03
2018-10-01T10:33:34.340Z,994.02
2018-10-01T10:34:34.352Z,993.98
2018-10-01T10:35:34.358Z,994.02
2018-10-01T10:36:34.316Z,994.02
2018-10-01T10:37:34.302Z,994.04
2018-10-01T10:38:34.371Z,994.02
2018-10-01T10:39:34.295Z,994.04
2018-10-01T10:40:34.277Z,994.01
2018-10-01T10:41:34.295Z,994.09
2018-10-01T10:42:34.259Z,994.08
2018-10-01T10:43:34.250Z,994.13
2018-10-01T10:44:34.315Z,994.11
2018-10-01T10:45:34.234Z,994.12
2018-10-01T10:46:34.228Z,994.12
2018-10-01T10:47:34.217Z,994.12
2018-10-01T10:48:34.206Z,994.18
2018-10-01T10:49:34.198Z,994.17
2018-10-01T10:50:34.252Z,994.15
2018-10-01T10:51:34.181Z,994.22
2018-10-01T10:52:34.170Z,994.23
2018-10-01T10:53:34.166Z,994.20
2018-10-01T10:54:34.158Z,994.24
2018-10-01T10:55:34.147Z,994.21
2018-10-01T10:56:34.167Z,994.17
2018-10-01T10:57:34.127Z,994.16
2018-10-01T10:58:34.118Z,994.16
2018-10-01T10:59:34.113Z,994.17
2018-10-01T11:00:34.103Z,994.13
2018-10-01T11:01:34.092Z,994.14
2018-10-01T11:02:34.138Z,994.18
2018-10-01T11:03:34.071Z,994.24
2018-10-01T11:04:34.069Z,994.22
2018-10-01T11:05:34.058Z,994.20
2018-10-01T11:06:34.049Z,994.17
2018-10-01T11:07:34.045Z,994.17
2018-10-01T11:08:34.103Z,994.15
2018-10-01T11:09:34.026Z,994.12
2018-10-01T11:10:34.014Z,994.15
2018-10-01T11:11:34.006Z,994.10
2018-10-01T11:12:33.997Z,994.09
2018-10-01T11:13:33.988Z,994.12
2018-10-01T11:14:34.055Z,994.07
2018-10-01T11:15:33.972Z,994.11
2018-10-01T11:16:33.964Z,994.09
2018-10-01T11:17:33.958Z,994.06
2018-10-01T11:18:34.073Z,994.03
2018-10-01T11:19:33.960Z,994.09
2018-10-01T11:20:34.066Z,994.07
2018-10-01T11:21:34.079Z,994.10
2018-10-01T11:22:33.910Z,994.11
2018-10-01T11:23:33.905Z,994.13
2018-10-01T11:24:33.894Z,994.07
2018-10-01T11:25:33.933Z,994.02
2018-10-01T11:26:33.875Z,994.07
2018-10-01T11:27:33.875Z,994.07
2018-10-01T11:28:33.857Z,994.04
2018-10-01T11:29:33.847Z,994.03
2018-10-01T11:30:33.840Z,994.04
2018-10-01T11:31:33.853Z,994.01
2018-10-01T11:32:33.828Z,994.04
2018-10-01T11:33:33.851Z,994.05
2018-10-01T11:34:33.911Z,994.04
2018-10-01T11:35:33.797Z,994.04
2018-10-01T11:36:33.788Z,994.04
2018-10-01T11:37:33.778Z,994.06
2018-10-01T11:38:33.773Z,994.08
2018-10-01T11:39:33.784Z,994.06
2018-10-01T11:40:33.753Z,994.06
2018-10-01T11:41:33.743Z,994.11
2018-10-01T11:42:33.756Z,994.06
2018-10-01T11:43:33.730Z,994.11
2018-10-01T11:44:33.730Z,994.11
2018-10-01T11:45:33.747Z,994.08
2018-10-01T11:46:33.703Z,994.14
2018-10-01T11:47:33.693Z,994.14
2018-10-01T11:48:33.685Z,994.15
2018-10-01T11:49:33.675Z,994.16
2018-10-01T11:50:33.668Z,994.15
2018-10-01T11:51:33.743Z,994.23
2018-10-01T11:52:33.650Z,994.17
2018-10-01T11:53:33.638Z,994.16
2018-10-01T11:54:33.636Z,994.22
2018-10-01T11:55:33.666Z,994.22
2018-10-01T11:56:33.614Z,994.20
2018-10-01T11:57:33.648Z,994.17
2018-10-01T11:58:33.596Z,994.17
2018-10-01T11:59:33.588Z,994.15
2018-10-01T12:00:33.589Z,994.17
2018-10-01T12:01:33.574Z,994.17
2018-10-01T12:02:33.571Z,994.12
2018-10-01T12:03:33.594Z,994.17
2018-10-01T12:04:33.543Z,994.16
2018-10-01T12:05:33.538Z,994.13
2018-10-01T12:06:33.527Z,994.15
2018-10-01T12:07:33.518Z,994.10
2018-10-01T12:08:33.507Z,994.12
2018-10-01T12:09:33.584Z,994.09
2018-10-01T12:10:33.556Z,994.08
2018-10-01T12:11:33.485Z,994.12
2018-10-01T12:12:33.475Z,994.08
2018-10-01T12:13:33.465Z,994.10
2018-10-01T12:14:33.459Z,994.08
2018-10-01T12:15:33.498Z,994.10
2018-10-01T12:16:33.440Z,994.06
2018-10-01T12:17:33.497Z,994.11
2018-10-01T12:18:33.423Z,994.15
2018-10-01T12:19:33.439Z,994.09
2018-10-01T12:20:33.423Z,994.13
2018-10-01T12:21:33.399Z,994.11
2018-10-01T12:22:33.387Z,994.09
2018-10-01T12:23:33.378Z,994.11
2018-10-01T12:24:33.370Z,994.03
2018-10-01T12:25:33.392Z,994.02
2018-10-01T12:26:33.352Z,994.06
2018-10-01T12:27:33.345Z,994.07
2018-10-01T12:28:33.339Z,994.08